createdAt,value
2022-11-08T00:00:20.231Z,3.30
2022-11-08T00:02:47.477Z,4.30
2022-11-08T00:05:33.115Z,3.87
2022-11-08T00:08:22.608Z,3.50
2022-11-08T00:11:08.039Z,3.47
2022-11-08T00:13:53.604Z,3.77
2022-11-08T00:16:23.325Z,3.60
2022-11-08T00:18:50.208Z,3.70
2022-11-08T00:21:17.277Z,2.93
2022-11-08T00:23:44.777Z,3.20
2022-11-08T00:26:11.870Z,3.50
2022-11-08T00:28:39.025Z,3.57
2022-11-08T00:31:06.709Z,3.20
2022-11-08T00:33:34.414Z,2.70
2022-11-08T00:36:02.658Z,3.10
2022-11-08T00:38:29.595Z,3.60
2022-11-08T00:40:56.738Z,3.57
2022-11-08T00:43:23.798Z,3.80
2022-11-08T00:45:50.740Z,2.80
2022-11-08T00:48:19.222Z,2.90
2022-11-08T00:50:46.562Z,2.70
2022-11-08T00:53:13.619Z,5.23
2022-11-08T00:55:40.684Z,3.07
2022-11-08T00:58:07.840Z,2.87
2022-11-08T01:00:34.810Z,4.13
2022-11-08T01:03:19.974Z,3.90
2022-11-08T01:05:48.575Z,5.13
2022-11-08T01:08:17.368Z,4.03
2022-11-08T01:10:52.015Z,4.70
2022-11-08T01:13:20.352Z,4.20
2022-11-08T01:15:47.873Z,4.17
2022-11-08T01:18:17.072Z,5.10
2022-11-08T01:20:46.885Z,5.03
2022-11-08T01:23:15.707Z,5.47
2022-11-08T01:25:46.519Z,4.20
2022-11-08T01:28:13.699Z,3.53
2022-11-08T01:30:43.468Z,4.33
2022-11-08T01:33:11.399Z,4.30
2022-11-08T01:35:39.082Z,3.80
2022-11-08T01:38:07.259Z,3.70
2022-11-08T01:40:34.885Z,4.47
2022-11-08T01:43:30.753Z,4.80
2022-11-08T01:46:10.307Z,4.30
2022-11-08T01:48:43.423Z,4.10
2022-11-08T01:51:14.939Z,4.60
2022-11-08T01:53:42.279Z,4.43
2022-11-08T01:56:11.031Z,5.10
2022-11-08T01:58:40.731Z,3.63
2022-11-08T02:01:08.409Z,2.93
2022-11-08T02:03:36.340Z,3.20
2022-11-08T02:06:04.363Z,3.47
2022-11-08T02:08:41.036Z,3.70
2022-11-08T02:11:13.082Z,3.43
2022-11-08T02:13:41.329Z,3.13
2022-11-08T02:16:14.903Z,3.03
2022-11-08T02:18:44.347Z,3.17
2022-11-08T02:21:45.068Z,3.40
2022-11-08T02:24:14.975Z,2.87
2022-11-08T02:26:43.910Z,4.00
2022-11-08T02:29:33.754Z,3.70
2022-11-08T02:32:02.483Z,3.80
2022-11-08T02:34:42.252Z,3.60
2022-11-08T02:37:09.863Z,3.63
2022-11-08T02:39:36.989Z,4.47
2022-11-08T02:42:04.170Z,5.20
2022-11-08T02:44:31.408Z,4.30
2022-11-08T02:46:58.453Z,7.67
2022-11-08T02:49:26.923Z,5.13
2022-11-08T02:51:54.382Z,5.27
2022-11-08T02:54:21.644Z,6.17
2022-11-08T02:56:48.899Z,5.27
2022-11-08T02:59:15.997Z,6.83
2022-11-08T03:01:43.628Z,5.60
2022-11-08T03:04:11.933Z,5.23
2022-11-08T03:06:39.197Z,5.30
2022-11-08T03:09:06.520Z,5.37
2022-11-08T03:11:33.779Z,5.77
2022-11-08T03:14:00.948Z,5.20
2022-11-08T03:16:28.221Z,5.33
2022-11-08T03:18:55.200Z,6.50
2022-11-08T03:21:22.282Z,5.63
2022-11-08T03:23:49.552Z,6.77
2022-11-08T03:26:16.554Z,5.10
2022-11-08T03:28:43.769Z,5.43
2022-11-08T03:31:11.130Z,5.93
2022-11-08T03:33:38.147Z,6.00
2022-11-08T03:36:05.622Z,5.00
2022-11-08T03:38:32.534Z,6.13
2022-11-08T03:40:59.719Z,5.00
2022-11-08T03:43:27.508Z,6.67
2022-11-08T03:45:54.628Z,6.67
2022-11-08T03:48:23.672Z,6.77
2022-11-08T03:50:51.919Z,6.57
2022-11-08T03:53:19.230Z,6.53
2022-11-08T03:55:46.228Z,6.20
2022-11-08T03:58:13.629Z,6.40
2022-11-08T04:00:41.658Z,6.97
2022-11-08T04:03:10.028Z,5.93
2022-11-08T04:05:37.314Z,5.47
2022-11-08T04:08:06.102Z,6.27
2022-11-08T04:10:33.299Z,6.83
2022-11-08T04:13:20.060Z,6.77
2022-11-08T04:15:57.849Z,6.27
2022-11-08T04:18:46.388Z,5.70
2022-11-08T04:21:19.069Z,7.03
2022-11-08T04:23:51.548Z,5.70
2022-11-08T04:26:20.029Z,6.30
2022-11-08T04:28:47.303Z,5.77
2022-11-08T04:31:18.562Z,6.57
2022-11-08T04:33:46.182Z,6.37
2022-11-08T04:36:16.486Z,6.40
2022-11-08T04:38:45.162Z,5.50
2022-11-08T04:41:14.638Z,7.17
2022-11-08T04:43:42.325Z,5.70
2022-11-08T04:46:19.236Z,6.37
2022-11-08T04:48:47.013Z,5.40
2022-11-08T04:51:21.915Z,6.13
2022-11-08T04:53:49.900Z,5.87
2022-11-08T04:56:19.968Z,5.90
2022-11-08T04:58:59.608Z,6.40
2022-11-08T05:01:31.124Z,5.40
2022-11-08T05:03:59.091Z,6.30
2022-11-08T05:06:31.256Z,6.37
2022-11-08T05:08:59.743Z,5.53
2022-11-08T05:11:29.183Z,5.20
2022-11-08T05:13:57.572Z,5.47
2022-11-08T05:16:31.805Z,5.43
2022-11-08T05:19:01.089Z,5.00
2022-11-08T05:21:46.552Z,4.60
2022-11-08T05:24:17.891Z,5.43
2022-11-08T05:26:48.123Z,5.77
2022-11-08T05:29:17.636Z,5.10
2022-11-08T05:31:44.717Z,5.40
2022-11-08T05:34:12.062Z,5.50
2022-11-08T05:36:39.228Z,5.37
2022-11-08T05:39:07.359Z,6.57
2022-11-08T05:41:34.346Z,5.60
2022-11-08T05:44:01.668Z,5.40
2022-11-08T05:46:28.950Z,5.63
2022-11-08T05:48:56.371Z,5.90
2022-11-08T05:51:23.539Z,6.50
2022-11-08T05:53:50.817Z,6.63
2022-11-08T05:56:18.505Z,5.40
2022-11-08T05:58:45.747Z,6.20
2022-11-08T06:01:16.657Z,5.80
2022-11-08T06:03:43.738Z,6.40
2022-11-08T06:06:17.549Z,5.73
2022-11-08T06:09:06.829Z,6.87
2022-11-08T06:11:33.836Z,7.63
2022-11-08T06:14:00.948Z,9.07
2022-11-08T06:16:27.971Z,13.37
2022-11-08T06:18:56.221Z,17.70
2022-11-08T06:21:24.581Z,23.23
2022-11-08T06:23:54.673Z,22.17
2022-11-08T06:26:24.127Z,24.73
2022-11-08T06:28:52.139Z,22.97
2022-11-08T06:31:19.424Z,23.63
2022-11-08T06:33:46.929Z,21.57
2022-11-08T06:36:14.047Z,21.53
2022-11-08T06:38:41.523Z,18.20
2022-11-08T06:41:14.379Z,15.47
2022-11-08T06:43:41.341Z,13.80
2022-11-08T06:46:08.528Z,10.83
2022-11-08T06:48:36.326Z,15.57
2022-11-08T06:51:04.565Z,12.47
2022-11-08T06:53:32.669Z,10.60
2022-11-08T06:56:01.101Z,9.40
2022-11-08T06:58:29.243Z,10.17
2022-11-08T07:00:56.433Z,12.97
2022-11-08T07:03:25.403Z,11.20
2022-11-08T07:05:52.831Z,13.53
2022-11-08T07:08:23.543Z,12.90
2022-11-08T07:10:51.925Z,13.43
2022-11-08T07:13:19.164Z,13.33
2022-11-08T07:15:48.104Z,12.87
2022-11-08T07:18:17.748Z,9.77
2022-11-08T07:20:46.300Z,8.60
2022-11-08T07:23:13.930Z,10.60
2022-11-08T07:25:41.888Z,9.00
2022-11-08T07:28:16.921Z,9.43
2022-11-08T07:30:45.887Z,9.87
2022-11-08T07:33:13.882Z,7.90
2022-11-08T07:35:41.629Z,6.30
2022-11-08T07:38:08.649Z,6.83
2022-11-08T07:40:35.816Z,6.60
2022-11-08T07:43:12.198Z,8.53
2022-11-08T07:45:41.316Z,11.00
2022-11-08T07:48:13.053Z,10.10
2022-11-08T07:51:02.984Z,9.10
2022-11-08T07:53:33.148Z,9.70
2022-11-08T07:56:00.557Z,7.90
2022-11-08T07:58:27.559Z,6.10
2022-11-08T08:01:03.725Z,6.83
2022-11-08T08:03:31.249Z,6.80
2022-11-08T08:06:01.317Z,7.07
2022-11-08T08:08:29.780Z,6.93
2022-11-08T08:11:02.087Z,7.03
2022-11-08T08:13:29.509Z,8.43
2022-11-08T08:16:01.427Z,10.50
2022-11-08T08:18:30.321Z,12.10
2022-11-08T08:20:57.840Z,13.13
2022-11-08T08:23:24.871Z,12.73
2022-11-08T08:25:53.057Z,10.87
2022-11-08T08:28:20.056Z,10.97
2022-11-08T08:30:47.400Z,10.37
2022-11-08T08:33:32.939Z,9.67
2022-11-08T08:36:02.122Z,10.60
2022-11-08T08:38:30.676Z,9.83
2022-11-08T08:40:59.267Z,11.40
2022-11-08T08:43:29.630Z,9.50
2022-11-08T08:46:05.748Z,8.73
2022-11-08T08:48:33.601Z,8.50
2022-11-08T08:51:01.195Z,8.77
2022-11-08T08:53:28.220Z,9.53
2022-11-08T08:55:55.696Z,8.40
2022-11-08T08:58:22.771Z,8.00
2022-11-08T09:03:37.402Z,8.23
2022-11-08T09:06:05.095Z,8.53
2022-11-08T09:08:32.091Z,8.10
2022-11-08T09:11:01.705Z,7.50
2022-11-08T09:13:32.962Z,7.97
2022-11-08T09:16:02.948Z,6.23
2022-11-08T09:18:30.850Z,7.10
2022-11-08T09:20:59.240Z,6.00
2022-11-08T09:23:26.606Z,6.77
2022-11-08T09:26:00.191Z,5.87
2022-11-08T09:28:31.521Z,5.80
2022-11-08T09:31:12.064Z,5.90
2022-11-08T09:33:40.629Z,6.20
2022-11-08T09:36:12.208Z,6.70
2022-11-08T09:38:39.194Z,6.60
2022-11-08T09:41:25.977Z,7.00
2022-11-08T09:44:36.245Z,6.23
2022-11-08T09:47:28.089Z,6.30
2022-11-08T09:50:33.114Z,5.20
2022-11-08T09:53:35.192Z,5.93
2022-11-08T09:56:21.555Z,6.40
2022-11-08T09:59:02.399Z,4.90
2022-11-08T10:01:35.839Z,5.00
2022-11-08T10:04:14.933Z,4.37
2022-11-08T10:07:22.286Z,3.70
2022-11-08T10:10:12.190Z,4.10
2022-11-08T10:12:56.937Z,3.93
2022-11-08T10:15:54.155Z,4.07
2022-11-08T10:18:51.929Z,2.40
2022-11-08T10:21:42.507Z,2.07
2022-11-08T10:24:35.769Z,2.17
2022-11-08T10:27:11.159Z,2.93
2022-11-08T10:29:43.857Z,2.03
2022-11-08T10:32:22.495Z,1.80
2022-11-08T10:35:04.297Z,1.80
2022-11-08T10:37:34.307Z,1.47
2022-11-08T10:40:24.824Z,1.20
2022-11-08T10:43:09.510Z,1.20
2022-11-08T10:45:37.176Z,1.60
2022-11-08T10:48:05.402Z,1.43
2022-11-08T10:50:44.955Z,1.40
2022-11-08T10:53:28.712Z,1.57
2022-11-08T10:56:02.083Z,1.30
2022-11-08T10:58:39.534Z,1.10
2022-11-08T11:01:19.691Z,1.30
2022-11-08T11:03:48.871Z,0.80
2022-11-08T11:06:30.301Z,1.00
2022-11-08T11:09:06.612Z,1.43
2022-11-08T11:11:33.933Z,1.60
2022-11-08T11:14:22.138Z,1.03
2022-11-08T11:17:12.993Z,0.90
2022-11-08T11:19:51.748Z,0.97
2022-11-08T11:22:31.050Z,1.40
2022-11-08T11:25:23.664Z,1.10
2022-11-08T11:27:59.703Z,1.40
2022-11-08T11:30:30.427Z,1.27
2022-11-08T11:33:08.966Z,1.03
2022-11-08T11:35:50.566Z,1.10
2022-11-08T11:38:31.723Z,1.10
2022-11-08T11:41:11.075Z,1.07
2022-11-08T11:43:56.307Z,1.00
2022-11-08T11:46:41.609Z,1.10
2022-11-08T11:49:19.506Z,1.23
2022-11-08T11:51:46.933Z,0.80
2022-11-08T11:54:16.314Z,1.10
2022-11-08T11:57:31.540Z,1.60
2022-11-08T12:00:09.801Z,1.20
2022-11-08T12:03:08.052Z,0.90
2022-11-08T12:06:06.281Z,1.43
2022-11-08T12:09:04.138Z,0.97
2022-11-08T12:11:49.292Z,0.97
2022-11-08T12:14:34.403Z,1.10
2022-11-08T12:17:30.452Z,1.10
2022-11-08T12:20:38.554Z,1.40
2022-11-08T12:23:36.118Z,0.90
2022-11-08T12:26:15.221Z,1.10
2022-11-08T12:29:14.536Z,1.10
2022-11-08T12:31:52.967Z,1.17
2022-11-08T12:34:46.885Z,1.20
2022-11-08T12:37:41.900Z,1.10
2022-11-08T12:40:52.193Z,1.20
2022-11-08T12:43:41.140Z,1.40
2022-11-08T12:46:18.627Z,1.50
2022-11-08T12:49:31.496Z,1.03
2022-11-08T12:52:39.379Z,1.30
2022-11-08T12:55:19.761Z,1.33
2022-11-08T12:57:47.529Z,1.00
2022-11-08T13:00:19.203Z,1.03
2022-11-08T13:03:16.159Z,1.37
2022-11-08T13:06:34.394Z,1.40
2022-11-08T13:09:32.657Z,1.47
2022-11-08T13:12:25.339Z,1.00
2022-11-08T13:14:52.511Z,1.37
2022-11-08T13:17:25.050Z,1.40
2022-11-08T13:19:53.004Z,0.90
2022-11-08T13:22:29.355Z,1.27
2022-11-08T13:25:02.376Z,1.50
2022-11-08T13:27:42.554Z,1.80
2022-11-08T13:30:13.934Z,1.50
2022-11-08T13:32:58.087Z,1.23
2022-11-08T13:35:46.236Z,1.27
2022-11-08T13:39:06.280Z,1.30
2022-11-08T13:42:16.114Z,1.53
2022-11-08T13:44:55.191Z,1.40
2022-11-08T13:47:34.695Z,1.57
2022-11-08T13:50:29.591Z,1.40
2022-11-08T13:53:05.135Z,1.30
2022-11-08T13:56:04.749Z,1.60
2022-11-08T13:58:38.299Z,1.50
2022-11-08T14:01:24.050Z,1.50
2022-11-08T14:03:50.928Z,1.70
2022-11-08T14:07:22.209Z,1.20
2022-11-08T14:10:07.712Z,1.00
2022-11-08T14:13:07.545Z,1.33
2022-11-08T14:15:46.574Z,1.30
2022-11-08T14:18:30.158Z,1.40
2022-11-08T14:20:57.799Z,1.63
2022-11-08T14:23:38.078Z,1.37
2022-11-08T14:26:24.077Z,1.33
2022-11-08T14:28:53.355Z,1.20
2022-11-08T14:31:32.025Z,1.57
2022-11-08T14:34:00.827Z,1.03
2022-11-08T14:36:32.135Z,1.43
2022-11-08T14:39:18.055Z,1.20
2022-11-08T14:41:55.542Z,1.27
2022-11-08T14:44:23.496Z,1.43
2022-11-08T14:46:51.545Z,1.60
2022-11-08T14:49:30.859Z,1.10
2022-11-08T14:52:23.113Z,1.97
2022-11-08T14:57:51.102Z,1.13
2022-11-08T15:00:22.468Z,1.30
2022-11-08T15:03:04.153Z,1.60
2022-11-08T15:05:47.940Z,2.07
2022-11-08T15:08:48.152Z,1.77
2022-11-08T15:11:32.927Z,1.10
2022-11-08T15:14:10.788Z,1.57
2022-11-08T15:19:43.059Z,1.63
2022-11-08T15:22:32.176Z,2.40
2022-11-08T15:25:14.698Z,1.93
2022-11-08T15:27:55.500Z,1.97
2022-11-08T15:30:26.207Z,1.70
2022-11-08T15:32:53.219Z,1.90
2022-11-08T15:35:26.275Z,2.43
2022-11-08T15:38:05.001Z,3.10
2022-11-08T15:40:36.172Z,2.80
2022-11-08T15:43:03.742Z,1.83
2022-11-08T15:45:35.234Z,2.40
2022-11-08T15:48:20.856Z,2.60
2022-11-08T15:50:48.428Z,1.80
2022-11-08T15:53:16.129Z,2.17
2022-11-08T15:55:59.098Z,2.40
2022-11-08T15:58:28.851Z,2.00
2022-11-08T16:00:58.659Z,1.93
2022-11-08T16:03:26.135Z,2.10
2022-11-08T16:05:53.741Z,2.47
2022-11-08T16:08:20.893Z,2.27
2022-11-08T16:10:52.746Z,2.17
2022-11-08T16:13:28.023Z,2.53
2022-11-08T16:15:57.072Z,2.67
2022-11-08T16:18:24.974Z,2.30
2022-11-08T16:20:52.091Z,2.30
2022-11-08T16:23:19.215Z,1.90
2022-11-08T16:25:50.564Z,1.93
2022-11-08T16:28:38.368Z,2.00
2022-11-08T16:31:17.910Z,2.20
2022-11-08T16:33:47.162Z,3.30
2022-11-08T16:36:23.952Z,2.63
2022-11-08T16:38:57.443Z,2.77
2022-11-08T16:41:26.002Z,2.97
2022-11-08T16:43:53.339Z,4.73
2022-11-08T16:46:21.943Z,6.63
2022-11-08T16:48:57.049Z,6.23
2022-11-08T16:51:25.980Z,5.60
2022-11-08T16:53:53.979Z,5.23
2022-11-08T16:56:21.415Z,4.43
2022-11-08T16:58:48.752Z,5.47
2022-11-08T17:01:23.326Z,6.63
2022-11-08T17:03:50.415Z,6.30
2022-11-08T17:06:18.960Z,5.60
2022-11-08T17:08:46.844Z,4.90
2022-11-08T17:11:23.693Z,3.87
2022-11-08T17:13:52.617Z,4.43
2022-11-08T17:16:20.235Z,4.60
2022-11-08T17:18:52.526Z,5.23
2022-11-08T17:24:08.404Z,4.70
2022-11-08T17:26:35.428Z,5.00
2022-11-08T17:29:02.430Z,5.30
2022-11-08T17:31:29.373Z,4.07
2022-11-08T17:33:56.384Z,4.10
2022-11-08T17:36:24.005Z,4.07
2022-11-08T17:38:51.069Z,3.90
2022-11-08T17:41:18.306Z,3.60
2022-11-08T17:43:45.751Z,3.77
2022-11-08T17:46:15.875Z,3.83
2022-11-08T17:48:43.065Z,2.80
2022-11-08T17:51:11.986Z,3.20
2022-11-08T17:53:39.003Z,4.33
2022-11-08T17:56:06.972Z,3.90
2022-11-08T17:58:34.455Z,4.20
2022-11-08T18:01:05.449Z,3.37
2022-11-08T18:03:33.756Z,4.60
2022-11-08T18:06:11.542Z,3.80
2022-11-08T18:08:38.864Z,3.70
2022-11-08T18:11:06.360Z,5.50
2022-11-08T18:13:35.207Z,4.10
2022-11-08T18:16:11.658Z,4.30
2022-11-08T18:18:39.196Z,4.67
2022-11-08T18:21:07.902Z,4.43
2022-11-08T18:23:35.527Z,5.03
2022-11-08T18:26:03.156Z,5.23
2022-11-08T18:28:30.723Z,4.40
2022-11-08T18:31:10.443Z,4.30
2022-11-08T18:33:38.559Z,5.53
2022-11-08T18:36:18.040Z,4.70
2022-11-08T18:38:46.248Z,3.90
2022-11-08T18:41:18.030Z,4.40
2022-11-08T18:43:45.466Z,4.50
2022-11-08T18:46:16.539Z,4.20
2022-11-08T18:48:44.194Z,4.83
2022-11-08T18:51:14.252Z,4.30
2022-11-08T18:53:42.452Z,3.87
2022-11-08T18:56:11.756Z,6.80
2022-11-08T18:58:39.765Z,6.17
2022-11-08T19:01:07.876Z,6.50
2022-11-08T19:03:35.573Z,7.33
2022-11-08T19:06:02.640Z,7.50
2022-11-08T19:08:31.151Z,6.57
2022-11-08T19:11:02.933Z,6.37
2022-11-08T19:13:32.263Z,7.47
2022-11-08T19:16:10.146Z,7.73
2022-11-08T19:18:37.890Z,5.90
2022-11-08T19:21:14.658Z,8.60
2022-11-08T19:23:42.389Z,8.60
2022-11-08T19:26:16.431Z,10.07
2022-11-08T19:28:45.658Z,10.33
2022-11-08T19:31:15.724Z,9.83
2022-11-08T19:33:42.928Z,10.83
2022-11-08T19:36:15.334Z,11.90
2022-11-08T19:38:44.263Z,9.87
2022-11-08T19:41:17.237Z,11.07
2022-11-08T19:43:45.415Z,9.37
2022-11-08T19:46:19.383Z,8.80
2022-11-08T19:48:49.473Z,11.50
2022-11-08T19:51:24.912Z,10.67
2022-11-08T19:54:05.404Z,11.80
2022-11-08T19:57:02.506Z,12.10
2022-11-08T19:59:21.404Z,13.27
2022-11-08T20:01:48.597Z,11.80
2022-11-08T20:04:15.821Z,12.30
2022-11-08T20:06:42.941Z,12.13
2022-11-08T20:09:11.516Z,11.13
2022-11-08T20:11:41.057Z,12.20
2022-11-08T20:14:12.054Z,11.97
2022-11-08T20:16:42.855Z,11.93
2022-11-08T20:19:13.776Z,12.20
2022-11-08T20:21:42.484Z,12.10
2022-11-08T20:24:11.574Z,10.30
2022-11-08T20:26:41.241Z,9.77
2022-11-08T20:29:08.770Z,6.97
2022-11-08T20:31:36.414Z,5.20
2022-11-08T20:34:06.042Z,4.37
2022-11-08T20:36:35.467Z,4.50
2022-11-08T20:39:06.923Z,4.87
2022-11-08T20:41:37.122Z,6.20
2022-11-08T20:44:05.840Z,6.20
2022-11-08T20:46:34.101Z,5.73
2022-11-08T20:49:01.820Z,5.57
2022-11-08T20:51:30.823Z,5.00
2022-11-08T20:54:00.199Z,4.90
2022-11-08T20:56:28.901Z,4.87
2022-11-08T20:58:56.409Z,6.47
2022-11-08T21:01:27.977Z,5.43
2022-11-08T21:03:56.051Z,4.90
2022-11-08T21:06:25.888Z,5.17
2022-11-08T21:11:40.574Z,4.73
2022-11-08T21:14:07.498Z,4.90
2022-11-08T21:16:53.209Z,4.77
2022-11-08T21:19:23.220Z,5.30
2022-11-08T21:21:50.207Z,4.60
2022-11-08T21:24:17.416Z,4.67
2022-11-08T21:26:44.437Z,5.70
2022-11-08T21:29:11.581Z,4.60
2022-11-08T21:31:38.499Z,4.80
2022-11-08T21:34:05.411Z,4.93
2022-11-08T21:36:32.890Z,4.10
2022-11-08T21:38:59.912Z,5.20
2022-11-08T21:41:26.869Z,6.23
2022-11-08T21:43:53.783Z,6.50
2022-11-08T21:46:26.469Z,6.10
2022-11-08T21:49:00.033Z,5.27
2022-11-08T21:51:30.670Z,5.00
2022-11-08T21:53:59.202Z,5.27
2022-11-08T21:56:31.176Z,5.93
2022-11-08T21:58:58.224Z,6.00
2022-11-08T22:01:29.989Z,5.73
2022-11-08T22:04:00.935Z,5.93
2022-11-08T22:06:28.446Z,5.00
2022-11-08T22:08:56.084Z,4.83
2022-11-08T22:11:23.218Z,5.07
2022-11-08T22:13:50.162Z,5.23
2022-11-08T22:16:17.430Z,5.50
2022-11-08T22:21:38.810Z,4.30
2022-11-08T22:24:11.249Z,3.80
2022-11-08T22:26:40.405Z,4.30
2022-11-08T22:29:07.959Z,4.03
2022-11-08T22:31:35.599Z,4.13
2022-11-08T22:34:03.594Z,4.10
2022-11-08T22:36:30.580Z,4.67
2022-11-08T22:38:57.771Z,3.10
2022-11-08T22:41:25.210Z,4.37
2022-11-08T22:43:52.738Z,4.70
2022-11-08T22:46:20.555Z,4.30
2022-11-08T22:48:47.811Z,4.97
2022-11-08T22:51:15.311Z,3.80
2022-11-08T22:53:43.386Z,4.73
2022-11-08T22:56:11.844Z,4.60
2022-11-08T22:58:39.614Z,3.73
2022-11-08T23:01:10.962Z,6.20
2022-11-08T23:03:37.983Z,4.87
2022-11-08T23:06:05.494Z,4.40
2022-11-08T23:08:32.969Z,5.80
2022-11-08T23:11:19.861Z,4.60
2022-11-08T23:14:05.989Z,5.70
2022-11-08T23:16:38.161Z,4.63
2022-11-08T23:19:36.242Z,4.87
2022-11-08T23:22:24.579Z,4.77
2022-11-08T23:24:51.875Z,4.33
2022-11-08T23:27:38.607Z,4.80
2022-11-08T23:30:25.828Z,4.17
2022-11-08T23:32:53.234Z,4.77
2022-11-08T23:35:24.611Z,4.80
2022-11-08T23:37:52.130Z,3.67
2022-11-08T23:40:38.988Z,4.00
2022-11-08T23:43:37.130Z,4.13
2022-11-08T23:46:11.451Z,4.03
2022-11-08T23:48:40.278Z,4.20
2022-11-08T23:51:08.169Z,3.43
2022-11-08T23:53:37.135Z,3.77
2022-11-08T23:56:05.778Z,3.60
2022-11-08T23:58:33.445Z,3.43
